Time;durP1;ratioP1;P1;durP2;ratioP2;P2;SDS_P1;SDS_P2;PMS_P1;PMS_P2;Temp;Humidity;BMP_temperature;BMP_pressure;BME280_temperature;BME280_humidity;BME280_pressure;Samples;Min_cycle;Max_cycle;Signal;HPM_P1;HPM_P2
2020/12/08 00:00:11;;;;;;;4.12;2.12;;;5.40;70.70;;;;;;2443409;55;20999;-72
2020/12/08 00:02:38;;;;;;;3.90;2.05;;;5.50;71.00;;;;;;2232258;55;22029;-72
2020/12/08 00:05:05;;;;;;;4.18;2.20;;;5.50;71.20;;;;;;2237425;56;21018;-72
2020/12/08 00:07:31;;;;;;;4.75;2.42;;;5.50;71.30;;;;;;2234445;56;21062;-72
2020/12/08 00:09:58;;;;;;;4.82;2.17;;;5.50;71.40;;;;;;2448949;56;21436;-72
2020/12/08 00:12:25;;;;;;;4.03;2.05;;;5.60;72.10;;;;;;2227310;56;21028;-72
2020/12/08 00:14:54;;;;;;;3.62;1.67;;;5.60;71.60;;;;;;2208325;57;20991;-72
2020/12/08 00:17:21;;;;;;;5.47;2.50;;;5.60;71.70;;;;;;2441164;56;21443;-72
2020/12/08 00:19:47;;;;;;;3.85;2.28;;;5.70;71.90;;;;;;2448287;55;20931;-72
2020/12/08 00:22:15;;;;;;;4.68;2.30;;;5.80;72.00;;;;;;2450439;56;21529;-72
2020/12/08 00:24:41;;;;;;;4.35;2.37;;;5.80;72.00;;;;;;2226906;56;20987;-72
2020/12/08 00:27:09;;;;;;;4.68;2.47;;;5.80;72.10;;;;;;2461862;55;21436;-72
2020/12/08 00:29:38;;;;;;;5.10;2.70;;;5.90;72.90;;;;;;2237779;56;21025;-72
2020/12/08 00:32:06;;;;;;;4.57;2.55;;;6.00;72.30;;;;;;2461947;56;21009;-72
2020/12/08 00:34:32;;;;;;;11.98;5.05;;;6.00;72.40;;;;;;2237439;56;21462;-72
2020/12/08 00:36:59;;;;;;;10.05;4.55;;;6.10;72.30;;;;;;2462127;55;21000;-72
2020/12/08 00:39:26;;;;;;;6.72;3.30;;;6.10;72.20;;;;;;2238781;56;21880;-72
2020/12/08 00:41:52;;;;;;;6.90;3.25;;;6.20;72.20;;;;;;2461227;55;21016;-72
2020/12/08 00:44:19;;;;;;;5.37;2.53;;;6.30;72.20;;;;;;2239056;56;21406;-72
2020/12/08 00:46:47;;;;;;;5.90;2.95;;;6.30;72.00;;;;;;2226295;56;21616;-72
2020/12/08 00:49:14;;;;;;;5.07;2.47;;;6.30;71.90;;;;;;2228364;56;21315;-71
2020/12/08 00:51:44;;;;;;;8.98;4.53;;;6.40;71.90;;;;;;2459524;55;20996;-71
2020/12/08 00:54:11;;;;;;;12.63;6.05;;;6.40;71.70;;;;;;2225593;56;21015;-71
2020/12/08 00:56:39;;;;;;;7.60;4.18;;;6.40;71.50;;;;;;2461705;55;20992;-72
2020/12/08 00:59:06;;;;;;;5.93;3.12;;;6.50;71.50;;;;;;2237965;55;20968;-72
2020/12/08 01:01:32;;;;;;;5.03;2.65;;;6.50;71.50;;;;;;2461014;55;21056;-72
2020/12/08 01:04:01;;;;;;;5.12;2.87;;;6.50;71.40;;;;;;2462323;55;21052;-72
2020/12/08 01:06:28;;;;;;;5.12;2.90;;;6.50;71.10;;;;;;2224274;56;21032;-72
2020/12/08 01:08:55;;;;;;;4.75;2.70;;;6.50;70.90;;;;;;2237892;56;21013;-72
2020/12/08 01:11:21;;;;;;;5.55;3.30;;;6.60;70.80;;;;;;2236662;55;21108;-72
2020/12/08 01:13:50;;;;;;;6.43;3.00;;;6.50;70.50;;;;;;2237848;56;21548;-72
2020/12/08 01:16:24;;;;;;;5.72;3.37;;;6.50;70.40;;;;;;2226483;56;21047;-72
2020/12/08 01:18:50;;;;;;;4.75;2.37;;;6.40;70.10;;;;;;2461608;55;20980;-71
2020/12/08 01:21:17;;;;;;;6.28;3.35;;;6.50;70.30;;;;;;2236837;56;21564;-71
2020/12/08 01:23:44;;;;;;;6.80;3.03;;;6.60;70.40;;;;;;2237468;56;21430;-71
2020/12/08 01:26:11;;;;;;;5.32;3.17;;;6.50;70.30;;;;;;2461748;55;21024;-72
2020/12/08 01:28:37;;;;;;;5.97;3.03;;;6.50;70.30;;;;;;2237365;56;20981;-71
2020/12/08 01:31:04;;;;;;;4.78;2.80;;;6.50;70.30;;;;;;2458146;55;21037;-71
2020/12/08 01:33:30;;;;;;;5.20;2.97;;;6.50;70.30;;;;;;2461096;55;21012;-71
2020/12/08 01:35:57;;;;;;;7.70;3.03;;;6.50;70.30;;;;;;2227573;56;20967;-71
2020/12/08 01:38:24;;;;;;;5.50;2.90;;;6.50;70.30;;;;;;2235330;56;20987;-72
2020/12/08 01:40:54;;;;;;;5.45;2.85;;;6.50;70.30;;;;;;2441926;55;21789;-71
2020/12/08 01:43:21;;;;;;;4.60;2.67;;;6.50;70.30;;;;;;2440339;55;21117;-71
2020/12/08 01:45:47;;;;;;;4.70;2.70;;;6.50;70.30;;;;;;2231572;55;20986;-71
2020/12/08 01:48:18;;;;;;;5.50;3.03;;;6.50;70.30;;;;;;2232106;56;21127;-71
2020/12/08 01:50:45;;;;;;;5.95;3.17;;;6.50;70.00;;;;;;2238079;56;20969;-71
2020/12/08 01:53:13;;;;;;;6.75;3.40;;;6.50;70.00;;;;;;2237080;56;20980;-71
2020/12/08 01:55:40;;;;;;;7.10;3.75;;;6.50;69.80;;;;;;2461641;55;20961;-71
2020/12/08 01:58:22;;;;;;;6.32;3.95;;;6.50;69.80;;;;;;2237896;56;21056;-71
2020/12/08 02:00:51;;;;;;;5.00;3.20;;;6.50;69.60;;;;;;2208974;56;21033;-71
2020/12/08 02:03:18;;;;;;;5.65;3.28;;;6.50;69.80;;;;;;2424880;56;20945;-71
2020/12/08 02:05:44;;;;;;;6.07;3.30;;;6.40;69.80;;;;;;2213196;56;21029;-71
2020/12/08 02:08:11;;;;;;;8.15;3.70;;;6.40;69.70;;;;;;2232359;55;20967;-71
2020/12/08 02:10:38;;;;;;;5.65;3.50;;;6.40;69.70;;;;;;2207243;56;21062;-71
2020/12/08 02:13:10;;;;;;;6.28;3.78;;;6.40;69.70;;;;;;2207916;56;20983;-71
2020/12/08 02:15:36;;;;;;;5.55;3.05;;;6.40;69.80;;;;;;2216753;56;21006;-72
2020/12/08 02:18:04;;;;;;;7.22;4.20;;;6.40;69.90;;;;;;2196063;57;21728;-71
2020/12/08 02:20:30;;;;;;;6.60;3.90;;;6.40;70.00;;;;;;2425040;55;21037;-72
2020/12/08 02:22:57;;;;;;;6.47;4.05;;;6.40;69.90;;;;;;2231857;56;21084;-72
2020/12/08 02:25:24;;;;;;;7.40;4.20;;;6.30;69.80;;;;;;2425769;56;20980;-72
2020/12/08 02:27:51;;;;;;;7.03;4.18;;;6.40;69.90;;;;;;2446903;56;21315;-71
2020/12/08 02:30:19;;;;;;;7.20;4.20;;;6.40;69.90;;;;;;2211080;56;21044;-71
2020/12/08 02:32:45;;;;;;;6.65;3.92;;;6.30;69.80;;;;;;2439498;56;21810;-71
2020/12/08 02:35:12;;;;;;;7.07;4.50;;;6.30;69.80;;;;;;2217449;56;21060;-71
2020/12/08 02:37:38;;;;;;;6.78;4.12;;;6.30;69.90;;;;;;2425749;56;21008;-71
2020/12/08 02:40:05;;;;;;;7.25;4.00;;;6.30;69.90;;;;;;2449975;56;20977;-71
2020/12/08 02:42:31;;;;;;;7.97;4.62;;;6.30;69.90;;;;;;2425712;56;21576;-71
2020/12/08 02:44:58;;;;;;;7.70;4.37;;;6.30;70.00;;;;;;2214217;55;21048;-72
2020/12/08 02:47:24;;;;;;;8.55;4.25;;;6.20;69.90;;;;;;2226195;55;21544;-72
2020/12/08 02:49:54;;;;;;;8.05;4.50;;;6.30;70.00;;;;;;2425197;56;20993;-71
2020/12/08 02:52:21;;;;;;;7.20;4.03;;;6.30;70.00;;;;;;2232189;56;21768;-71
2020/12/08 02:54:48;;;;;;;7.32;4.35;;;6.20;69.80;;;;;;2208208;56;21521;-71
2020/12/08 02:57:15;;;;;;;7.80;4.43;;;6.20;69.90;;;;;;2211015;56;21124;-72
2020/12/08 02:59:41;;;;;;;7.50;4.05;;;6.20;69.90;;;;;;2232367;55;20963;-72
2020/12/08 03:02:09;;;;;;;6.47;4.12;;;6.20;69.90;;;;;;2420951;56;21057;-72
2020/12/08 03:04:37;;;;;;;6.95;4.10;;;6.20;70.00;;;;;;2221344;56;21082;-71
2020/12/08 03:07:04;;;;;;;7.37;4.30;;;6.20;70.00;;;;;;2236722;55;21923;-72
2020/12/08 03:09:30;;;;;;;6.93;4.18;;;6.20;70.20;;;;;;2228873;55;21548;-72
2020/12/08 03:11:56;;;;;;;7.32;4.40;;;6.20;70.30;;;;;;2232322;55;21015;-71
2020/12/08 03:14:23;;;;;;;5.70;3.83;;;6.20;70.40;;;;;;2208013;56;20981;-71
2020/12/08 03:16:49;;;;;;;6.47;3.60;;;6.30;70.50;;;;;;2236332;56;21011;-71
2020/12/08 03:19:18;;;;;;;6.78;3.80;;;6.20;70.40;;;;;;2452476;55;22019;-71
2020/12/08 03:21:44;;;;;;;7.65;3.60;;;6.20;70.30;;;;;;2226750;55;21246;-71
2020/12/08 03:24:13;;;;;;;5.75;3.28;;;6.20;70.20;;;;;;2218266;55;21096;-72
2020/12/08 03:26:40;;;;;;;6.07;3.12;;;6.20;70.20;;;;;;2231009;55;21026;-71
2020/12/08 03:29:06;;;;;;;6.18;3.37;;;6.30;70.20;;;;;;2217648;55;21019;-71
2020/12/08 03:31:34;;;;;;;5.90;3.75;;;6.20;70.20;;;;;;2228795;55;21999;-71
2020/12/08 03:34:09;;;;;;;7.18;4.37;;;6.30;70.30;;;;;;2224575;55;20968;-72
2020/12/08 03:36:38;;;;;;;8.15;4.40;;;6.30;70.20;;;;;;2445564;56;20949;-72
2020/12/08 03:39:04;;;;;;;7.95;4.70;;;6.30;70.20;;;;;;2224528;56;21253;-72
2020/12/08 03:41:31;;;;;;;6.93;4.12;;;6.30;70.90;;;;;;2226950;56;21499;-72
2020/12/08 03:43:57;;;;;;;7.40;4.28;;;6.30;70.10;;;;;;2443376;55;20947;-72
2020/12/08 03:46:25;;;;;;;7.03;4.72;;;6.30;70.20;;;;;;2447695;55;21082;-72
2020/12/08 03:48:52;;;;;;;9.10;5.00;;;6.30;70.10;;;;;;2430795;56;21920;-71
2020/12/08 03:51:21;;;;;;;6.28;3.83;;;6.30;70.10;;;;;;2216037;56;21011;-71
2020/12/08 03:53:48;;;;;;;7.32;4.50;;;6.30;70.10;;;;;;2206127;57;21840;-71
2020/12/08 03:56:15;;;;;;;7.97;4.45;;;6.30;70.10;;;;;;2425762;55;21004;-71
2020/12/08 03:58:42;;;;;;;5.35;3.40;;;6.30;70.20;;;;;;2209081;56;20993;-71
2020/12/08 04:01:15;;;;;;;6.20;3.97;;;6.20;70.10;;;;;;2237074;56;21788;-71
2020/12/08 04:03:42;;;;;;;;;;;6.30;70.10;;;;;;2445617;55;21043;-71
2020/12/08 04:06:12;;;;;;;7.03;3.80;;;6.30;69.40;;;;;;2460810;55;20066;-71
2020/12/08 04:08:45;;;;;;;5.40;3.10;;;6.20;69.70;;;;;;2237478;56;20981;-72
2020/12/08 04:11:13;;;;;;;5.55;3.45;;;6.20;69.60;;;;;;2450172;55;21085;-72
2020/12/08 04:13:42;;;;;;;6.05;3.53;;;6.20;69.60;;;;;;2216430;55;21004;-72
2020/12/08 04:16:12;;;;;;;6.62;3.53;;;6.20;69.50;;;;;;2458269;55;21012;-71
2020/12/08 04:18:39;;;;;;;5.85;3.47;;;6.20;69.40;;;;;;2228471;56;21487;-72
2020/12/08 04:21:06;;;;;;;8.57;3.83;;;6.20;69.40;;;;;;2441351;55;21043;-72
2020/12/08 04:23:33;;;;;;;6.12;3.30;;;6.20;69.60;;;;;;2227618;56;21058;-72
2020/12/08 04:26:00;;;;;;;5.22;3.28;;;6.10;69.50;;;;;;2234647;56;20948;-72
2020/12/08 04:28:26;;;;;;;5.47;3.20;;;6.10;69.60;;;;;;2238562;55;20957;-72
2020/12/08 04:30:55;;;;;;;6.65;3.50;;;6.10;69.70;;;;;;2237842;56;21886;-71
2020/12/08 04:33:22;;;;;;;6.53;3.97;;;6.10;69.80;;;;;;2205920;57;20993;-71
2020/12/08 04:35:49;;;;;;;7.65;4.57;;;6.10;69.80;;;;;;2444262;55;21357;-71
2020/12/08 04:38:15;;;;;;;7.45;4.20;;;6.10;69.80;;;;;;2233929;55;20965;-71
2020/12/08 04:40:48;;;;;;;5.78;3.75;;;6.10;69.80;;;;;;2442390;55;20987;-71
2020/12/08 04:43:15;;;;;;;7.25;3.97;;;6.10;69.80;;;;;;2231019;55;21074;-71
2020/12/08 04:45:45;;;;;;;9.88;5.68;;;6.10;69.70;;;;;;2442474;55;21594;-71
2020/12/08 04:48:12;;;;;;;7.37;5.00;;;6.10;69.70;;;;;;2227793;56;21127;-71
2020/12/08 04:50:38;;;;;;;7.85;5.25;;;6.10;69.60;;;;;;2228389;56;21490;-71
2020/12/08 04:53:05;;;;;;;7.30;4.20;;;6.00;69.60;;;;;;2455566;55;21754;-71
2020/12/08 04:55:32;;;;;;;6.15;4.15;;;6.00;69.70;;;;;;2448413;56;20952;-71
2020/12/08 04:57:58;;;;;;;6.25;3.95;;;6.00;69.70;;;;;;2238135;56;20944;-71
2020/12/08 05:00:25;;;;;;;6.70;3.60;;;6.00;69.70;;;;;;2445723;56;21221;-71
2020/12/08 05:02:54;;;;;;;5.45;3.03;;;6.00;69.60;;;;;;2226407;55;21409;-71
2020/12/08 05:05:22;;;;;;;5.85;3.47;;;6.00;69.60;;;;;;2461459;55;21028;-71
2020/12/08 05:07:48;;;;;;;5.65;3.05;;;6.00;69.60;;;;;;2227373;56;21728;-71
2020/12/08 05:10:27;;;;;;;7.15;3.20;;;6.00;69.50;;;;;;2238201;56;20965;-71
2020/12/08 05:12:55;;;;;;;6.10;3.50;;;5.90;69.10;;;;;;2237526;56;21846;-71
2020/12/08 05:15:22;;;;;;;6.87;3.45;;;5.90;69.30;;;;;;2238056;56;21028;-71
2020/12/08 05:17:52;;;;;;;6.12;3.50;;;5.90;69.30;;;;;;2441973;55;21011;-71
2020/12/08 05:20:19;;;;;;;5.15;3.20;;;5.90;69.40;;;;;;2450135;55;21887;-71
2020/12/08 05:22:56;;;;;;;5.85;3.35;;;5.90;69.30;;;;;;2232186;56;21018;-71
2020/12/08 05:25:25;;;;;;;5.00;2.97;;;5.90;69.10;;;;;;2454869;55;21057;-71
2020/12/08 05:27:53;;;;;;;5.40;3.10;;;5.80;69.20;;;;;;2237460;56;20936;-71
2020/12/08 05:30:20;;;;;;;6.30;3.62;;;5.80;69.20;;;;;;2237257;56;21037;-71
2020/12/08 05:32:47;;;;;;;4.07;2.50;;;5.80;69.20;;;;;;2237205;56;21032;-71
2020/12/08 05:35:16;;;;;;;5.45;3.20;;;5.80;69.10;;;;;;2451891;55;21033;-71
2020/12/08 05:37:47;;;;;;;6.00;3.42;;;5.80;69.20;;;;;;2228971;55;21064;-71
2020/12/08 05:40:27;;;;;;;4.87;3.00;;;5.70;69.00;;;;;;2441580;55;21050;-71
2020/12/08 05:42:56;;;;;;;6.35;3.50;;;5.70;68.90;;;;;;2455546;55;21075;-71
2020/12/08 05:45:24;;;;;;;6.40;3.65;;;5.70;68.90;;;;;;2449831;56;21077;-71
2020/12/08 05:47:57;;;;;;;5.97;3.37;;;5.70;68.90;;;;;;2237788;56;20972;-71
2020/12/08 05:50:25;;;;;;;6.35;3.20;;;5.70;69.10;;;;;;2461253;55;21636;-71
2020/12/08 05:53:01;;;;;;;5.03;2.90;;;5.60;69.00;;;;;;2455059;55;21002;-71
2020/12/08 05:55:31;;;;;;;6.47;4.05;;;5.60;69.00;;;;;;2450671;55;21790;-71
2020/12/08 05:58:07;;;;;;;6.40;3.55;;;5.60;69.10;;;;;;2461717;55;20961;-71
2020/12/08 06:00:34;;;;;;;6.25;3.65;;;5.50;69.00;;;;;;2461702;55;21927;-71
2020/12/08 06:03:13;;;;;;;6.20;3.60;;;5.50;69.10;;;;;;2461211;55;20961;-71
2020/12/08 06:05:43;;;;;;;6.40;3.78;;;5.50;69.00;;;;;;2419176;56;21017;-71
2020/12/08 06:08:16;;;;;;;7.05;4.22;;;5.50;69.20;;;;;;2228613;56;21440;-71
2020/12/08 06:10:50;;;;;;;6.90;4.40;;;5.50;69.10;;;;;;2416960;56;20979;-71
2020/12/08 06:13:29;;;;;;;6.75;4.22;;;5.40;69.00;;;;;;2235982;56;21453;-71
2020/12/08 06:15:56;;;;;;;9.02;5.03;;;5.40;68.80;;;;;;2460808;55;21772;-71
2020/12/08 06:18:32;;;;;;;7.10;4.12;;;5.40;68.90;;;;;;2240734;56;21012;-71
2020/12/08 06:20:59;;;;;;;7.55;4.20;;;5.40;68.70;;;;;;2232638;55;21067;-71
2020/12/08 06:23:26;;;;;;;5.78;3.30;;;5.40;68.70;;;;;;2220670;56;21553;-71
2020/12/08 06:26:02;;;;;;;7.40;3.70;;;5.30;68.40;;;;;;2224035;55;21030;-71
2020/12/08 06:28:28;;;;;;;8.45;3.58;;;5.30;68.30;;;;;;2450581;55;21100;-70
2020/12/08 06:31:03;;;;;;;11.80;6.20;;;5.20;68.20;;;;;;2237446;56;21524;-70
2020/12/08 06:33:30;;;;;;;10.18;5.55;;;5.20;68.10;;;;;;2452145;55;21036;-71
2020/12/08 06:36:00;;;;;;;7.68;4.60;;;5.20;68.10;;;;;;2228877;55;21068;-70
2020/12/08 06:38:27;;;;;;;10.00;4.45;;;5.10;68.00;;;;;;2461096;55;21851;-71
2020/12/08 06:40:54;;;;;;;6.80;3.95;;;5.10;68.10;;;;;;2445483;56;21545;-71
2020/12/08 06:43:21;;;;;;;9.27;5.55;;;5.00;68.10;;;;;;2448977;55;20991;-71
2020/12/08 06:45:48;;;;;;;9.00;4.47;;;5.00;68.10;;;;;;2230638;55;20976;-70
2020/12/08 06:48:18;;;;;;;7.82;4.60;;;4.90;68.00;;;;;;2223425;56;21001;-71
2020/12/08 06:50:47;;;;;;;8.38;4.32;;;4.90;68.10;;;;;;2240852;56;20992;-70
2020/12/08 06:53:13;;;;;;;10.50;4.95;;;4.90;68.90;;;;;;2461768;55;20993;-71
2020/12/08 06:55:47;;;;;;;11.07;4.93;;;4.90;68.40;;;;;;2238237;56;20965;-71
2020/12/08 06:58:15;;;;;;;9.32;5.03;;;4.80;68.40;;;;;;2238556;56;21041;-71
2020/12/08 07:00:44;;;;;;;10.20;5.28;;;4.80;68.40;;;;;;2237516;56;20968;-71
2020/12/08 07:03:11;;;;;;;8.70;5.20;;;4.80;68.40;;;;;;2461059;55;21708;-71
2020/12/08 07:05:38;;;;;;;10.20;5.30;;;4.70;68.40;;;;;;2238509;56;21997;-71
2020/12/08 07:08:06;;;;;;;11.68;5.78;;;4.70;68.60;;;;;;2237855;56;20948;-71
2020/12/08 07:10:47;;;;;;;10.90;6.15;;;4.70;68.80;;;;;;2461288;55;21000;-71
2020/12/08 07:13:16;;;;;;;8.00;4.80;;;4.70;68.60;;;;;;2207114;57;20973;-72
2020/12/08 07:15:43;;;;;;;6.90;3.87;;;4.60;68.50;;;;;;2238941;56;20986;-72
2020/12/08 07:18:11;;;;;;;8.02;4.18;;;4.60;68.60;;;;;;2227917;56;21040;-72
2020/12/08 07:20:43;;;;;;;9.27;5.00;;;4.60;68.80;;;;;;2447213;56;20952;-72
2020/12/08 07:23:12;;;;;;;9.35;5.43;;;4.50;68.80;;;;;;2226833;56;21864;-72
2020/12/08 07:25:39;;;;;;;8.23;4.65;;;4.50;69.00;;;;;;2232896;56;21003;-72
2020/12/08 07:28:09;;;;;;;8.60;4.93;;;4.50;69.10;;;;;;2444161;55;20974;-72
2020/12/08 07:30:35;;;;;;;8.60;4.47;;;4.50;69.10;;;;;;2240135;56;20985;-72
2020/12/08 07:33:12;;;;;;;8.40;4.60;;;4.50;69.20;;;;;;2225035;56;20945;-72
2020/12/08 07:35:42;;;;;;;9.40;5.12;;;4.50;69.20;;;;;;2461573;55;20976;-71
2020/12/08 07:38:10;;;;;;;7.90;4.60;;;4.50;69.30;;;;;;2232978;55;20995;-71
2020/12/08 07:40:38;;;;;;;10.48;5.15;;;4.50;69.40;;;;;;2451266;55;21547;-72
2020/12/08 07:43:04;;;;;;;10.82;5.12;;;4.50;69.30;;;;;;2228665;56;21980;-71
2020/12/08 07:45:32;;;;;;;10.57;5.65;;;4.50;69.30;;;;;;2459974;55;21024;-71
2020/12/08 07:48:01;;;;;;;9.75;5.87;;;4.50;69.30;;;;;;2461618;55;21046;-71
2020/12/08 07:50:31;;;;;;;13.88;6.60;;;4.50;69.40;;;;;;2227577;56;20995;-70
2020/12/08 07:53:02;;;;;;;16.48;8.40;;;4.50;69.60;;;;;;2461054;55;21805;-71
2020/12/08 07:55:30;;;;;;;25.02;12.37;;;4.50;69.80;;;;;;2451972;55;20999;-71
2020/12/08 07:57:57;;;;;;;16.52;10.13;;;4.50;70.00;;;;;;2224585;55;21049;-71
2020/12/08 08:00:23;;;;;;;16.15;8.57;;;4.50;70.30;;;;;;2238621;55;21058;-71
2020/12/08 08:02:50;;;;;;;15.32;8.77;;;4.50;70.50;;;;;;2227951;55;21051;-71
2020/12/08 08:05:16;;;;;;;14.85;8.75;;;4.60;70.90;;;;;;2224144;55;21066;-72
2020/12/08 08:07:43;;;;;;;16.25;9.25;;;4.60;71.10;;;;;;2230208;55;21017;-72
2020/12/08 08:10:10;;;;;;;13.70;7.90;;;4.70;71.30;;;;;;2238466;56;21017;-72
2020/12/08 08:12:36;;;;;;;17.60;8.98;;;4.70;71.40;;;;;;2447399;56;21042;-72
2020/12/08 08:15:04;;;;;;;14.35;8.32;;;4.80;71.60;;;;;;2235346;56;21758;-72
2020/12/08 08:17:30;;;;;;;12.85;6.95;;;4.80;71.90;;;;;;2238011;56;21036;-72
2020/12/08 08:19:57;;;;;;;13.85;8.85;;;4.90;72.20;;;;;;2238981;56;20956;-72
2020/12/08 08:22:24;;;;;;;15.75;9.18;;;4.90;72.20;;;;;;2446125;55;20948;-72
2020/12/08 08:24:51;;;;;;;15.77;8.73;;;5.00;72.30;;;;;;2228067;55;21706;-72
2020/12/08 08:27:18;;;;;;;16.27;9.65;;;5.10;72.20;;;;;;2227339;55;20995;-72
2020/12/08 08:29:47;;;;;;;15.40;8.57;;;5.10;72.00;;;;;;2223964;55;21100;-72
2020/12/08 08:32:13;;;;;;;15.82;9.40;;;5.20;72.00;;;;;;2459806;55;21493;-71
2020/12/08 08:34:40;;;;;;;16.60;8.80;;;5.20;71.90;;;;;;2234063;55;21039;-72
2020/12/08 08:37:06;;;;;;;17.42;9.98;;;5.30;71.90;;;;;;2438219;55;20985;-71
2020/12/08 08:39:33;;;;;;;16.05;8.75;;;5.30;72.00;;;;;;2222707;55;21076;-71
2020/12/08 08:41:59;;;;;;;15.50;8.45;;;5.40;71.90;;;;;;2237563;56;20985;-72
2020/12/08 08:44:26;;;;;;;16.10;8.80;;;5.50;71.80;;;;;;2419165;56;20979;-72
2020/12/08 08:47:02;;;;;;;14.45;7.85;;;5.50;71.70;;;;;;2232137;56;20943;-72
2020/12/08 08:49:29;;;;;;;14.48;7.93;;;5.50;71.70;;;;;;2419026;55;20973;-72
2020/12/08 08:51:55;;;;;;;16.42;8.77;;;5.60;72.10;;;;;;2460995;55;20932;-71
2020/12/08 08:54:22;;;;;;;16.30;9.85;;;5.60;72.60;;;;;;2239008;56;22300;-71
2020/12/08 08:56:48;;;;;;;19.02;10.40;;;5.70;73.20;;;;;;2228716;55;21796;-71
2020/12/08 08:59:15;;;;;;;14.95;8.82;;;5.90;73.80;;;;;;2225302;56;20981;-71
2020/12/08 09:01:42;;;;;;;10.00;6.10;;;5.90;73.80;;;;;;2232819;56;20990;-72
2020/12/08 09:04:09;;;;;;;12.45;6.72;;;6.10;74.00;;;;;;2450263;55;21059;-71
2020/12/08 09:06:35;;;;;;;11.60;7.25;;;6.20;74.10;;;;;;2231236;56;21057;-71
2020/12/08 09:09:02;;;;;;;12.57;6.85;;;6.30;73.90;;;;;;2442046;55;21423;-72
2020/12/08 09:11:28;;;;;;;9.45;6.03;;;6.40;73.60;;;;;;2227699;55;21011;-72
2020/12/08 09:13:55;;;;;;;9.73;6.22;;;6.50;73.50;;;;;;2443740;55;20973;-72
2020/12/08 09:16:24;;;;;;;9.20;6.05;;;6.50;73.30;;;;;;2461641;55;21044;-72
2020/12/08 09:18:50;;;;;;;12.15;6.43;;;6.60;73.10;;;;;;2233842;55;21011;-72
2020/12/08 09:21:17;;;;;;;9.35;6.07;;;6.70;73.10;;;;;;2224718;55;20959;-71
2020/12/08 09:23:44;;;;;;;9.48;5.70;;;6.80;73.00;;;;;;2444082;55;20987;-72
2020/12/08 09:26:10;;;;;;;9.98;6.75;;;6.80;72.90;;;;;;2235891;55;20968;-72
2020/12/08 09:28:37;;;;;;;11.40;7.35;;;6.90;72.90;;;;;;2237692;56;20981;-72
2020/12/08 09:31:03;;;;;;;11.93;7.93;;;6.90;72.70;;;;;;2448180;55;21930;-72
2020/12/08 09:33:30;;;;;;;15.05;8.20;;;7.00;72.50;;;;;;2206310;56;21044;-72
2020/12/08 09:35:57;;;;;;;13.85;8.00;;;7.00;72.20;;;;;;2232083;55;20950;-71
2020/12/08 09:38:23;;;;;;;15.02;9.55;;;7.10;72.00;;;;;;2233124;56;21036;-71
2020/12/08 09:40:49;;;;;;;12.82;8.43;;;7.10;71.90;;;;;;2443383;56;20980;-72
2020/12/08 09:43:16;;;;;;;16.42;10.65;;;7.20;72.10;;;;;;2228039;56;21952;-72
2020/12/08 09:45:42;;;;;;;14.40;9.93;;;7.20;72.60;;;;;;2224942;55;21438;-72
2020/12/08 09:48:09;;;;;;;13.75;8.30;;;7.30;73.10;;;;;;2457243;55;21023;-72
2020/12/08 09:50:35;;;;;;;13.18;8.45;;;7.40;73.60;;;;;;2223504;55;21018;-72
2020/12/08 09:53:02;;;;;;;13.07;8.18;;;7.50;73.70;;;;;;2415694;56;21038;-72
2020/12/08 09:55:29;;;;;;;12.07;7.37;;;7.60;73.50;;;;;;2234420;55;20960;-72
2020/12/08 09:57:55;;;;;;;11.75;7.50;;;7.50;72.80;;;;;;2461564;55;21576;-72
2020/12/08 10:00:22;;;;;;;15.23;8.45;;;7.70;72.50;;;;;;2232040;56;21014;-72
2020/12/08 10:02:48;;;;;;;12.02;7.43;;;7.70;71.80;;;;;;2231803;56;21060;-72
2020/12/08 10:05:16;;;;;;;12.30;7.57;;;7.70;71.30;;;;;;2237840;55;21026;-71
2020/12/08 10:07:43;;;;;;;13.93;7.35;;;7.70;70.90;;;;;;2231718;55;21003;-72
2020/12/08 10:10:09;;;;;;;14.43;8.25;;;7.70;70.70;;;;;;2223875;55;20977;-72
2020/12/08 10:12:36;;;;;;;11.88;7.47;;;7.70;71.00;;;;;;2234870;56;21044;-72
2020/12/08 10:15:03;;;;;;;12.57;7.57;;;7.70;71.20;;;;;;2229278;55;20986;-72
2020/12/08 10:17:29;;;;;;;12.57;7.50;;;7.70;71.40;;;;;;2223921;55;21903;-72
2020/12/08 10:19:56;;;;;;;11.07;7.05;;;7.80;71.70;;;;;;2227630;55;21086;-72
2020/12/08 10:22:22;;;;;;;12.88;7.70;;;7.80;71.90;;;;;;2444959;56;21008;-72
2020/12/08 10:24:50;;;;;;;11.15;6.68;;;7.80;71.80;;;;;;2452207;55;21026;-71
2020/12/08 10:27:17;;;;;;;11.93;7.18;;;7.90;71.40;;;;;;2440707;55;21074;-72
2020/12/08 10:29:43;;;;;;;10.27;6.40;;;7.90;71.10;;;;;;2440770;55;21037;-72
2020/12/08 10:32:09;;;;;;;9.93;6.05;;;7.90;71.20;;;;;;2234495;55;21916;-72
2020/12/08 10:34:36;;;;;;;9.68;6.22;;;7.90;71.00;;;;;;2225566;56;21766;-72
2020/12/08 10:37:02;;;;;;;9.68;6.18;;;7.90;70.80;;;;;;2239249;56;21125;-72
2020/12/08 10:39:29;;;;;;;9.15;5.72;;;7.90;70.50;;;;;;2224134;55;21025;-71
2020/12/08 10:41:56;;;;;;;9.65;5.97;;;7.90;70.70;;;;;;2224325;55;21070;-72
2020/12/08 10:44:23;;;;;;;9.60;6.03;;;8.00;72.30;;;;;;2440829;56;21011;-72
2020/12/08 10:46:50;;;;;;;9.82;6.53;;;8.10;74.10;;;;;;2233724;55;21055;-72
2020/12/08 10:49:17;;;;;;;10.73;6.85;;;8.30;74.90;;;;;;2222819;55;21064;-72
2020/12/08 10:51:45;;;;;;;11.93;7.07;;;8.40;74.90;;;;;;2430841;55;21002;-72
2020/12/08 10:54:11;;;;;;;10.45;6.62;;;8.60;75.30;;;;;;2205930;57;20953;-72
2020/12/08 10:56:38;;;;;;;10.75;6.87;;;8.80;76.40;;;;;;2445970;55;21086;-72
2020/12/08 10:59:04;;;;;;;12.35;8.07;;;9.00;77.50;;;;;;2225869;55;21547;-72
2020/12/08 11:01:32;;;;;;;13.30;8.25;;;9.30;78.60;;;;;;2237358;56;21872;-72
2020/12/08 11:03:59;;;;;;;12.23;7.78;;;9.60;78.70;;;;;;2228227;56;21003;-72
2020/12/08 11:06:27;;;;;;;13.93;7.55;;;9.90;78.10;;;;;;2236339;56;20992;-72
2020/12/08 11:08:55;;;;;;;11.55;7.18;;;10.10;75.70;;;;;;2461150;55;20972;-72
2020/12/08 11:11:22;;;;;;;9.68;6.90;;;10.30;74.30;;;;;;2444729;56;20958;-72
2020/12/08 11:13:49;;;;;;;12.23;8.10;;;10.50;73.30;;;;;;2237457;55;21016;-72
2020/12/08 11:16:15;;;;;;;11.32;7.50;;;10.60;72.40;;;;;;2238082;56;20976;-72
2020/12/08 11:18:42;;;;;;;9.57;6.43;;;10.60;71.50;;;;;;2238599;56;21016;-72
2020/12/08 11:21:09;;;;;;;9.93;6.68;;;10.70;70.60;;;;;;2461785;55;21060;-72
2020/12/08 11:23:36;;;;;;;10.85;7.50;;;10.60;69.60;;;;;;2235498;56;21066;-72
2020/12/08 11:26:02;;;;;;;10.85;7.15;;;10.60;69.20;;;;;;2232134;55;21048;-72
2020/12/08 11:28:29;;;;;;;11.10;6.87;;;10.60;68.90;;;;;;2451685;55;20963;-72
2020/12/08 11:30:55;;;;;;;12.07;7.43;;;10.50;68.60;;;;;;2230660;56;20997;-72
2020/12/08 11:33:27;;;;;;;11.18;6.90;;;10.50;68.60;;;;;;2227164;56;21023;-72
2020/12/08 11:35:54;;;;;;;12.18;7.05;;;10.40;68.30;;;;;;2226652;56;21913;-72
2020/12/08 11:38:21;;;;;;;10.70;6.57;;;10.40;68.20;;;;;;2445173;56;20971;-72
2020/12/08 11:40:48;;;;;;;10.52;6.82;;;10.30;68.50;;;;;;2238568;56;21035;-72
2020/12/08 11:43:14;;;;;;;10.40;6.75;;;10.30;69.40;;;;;;2458511;55;21085;-73
2020/12/08 11:45:40;;;;;;;9.55;6.30;;;10.30;69.50;;;;;;2237449;56;21009;-72
2020/12/08 11:48:16;;;;;;;8.15;5.55;;;10.30;69.50;;;;;;2442850;55;21037;-72
2020/12/08 11:50:43;;;;;;;10.43;6.05;;;10.30;68.90;;;;;;2226280;56;21042;-72
2020/12/08 11:53:12;;;;;;;12.05;6.22;;;10.30;68.50;;;;;;2237302;56;21000;-72
2020/12/08 11:55:39;;;;;;;11.38;6.50;;;10.20;68.00;;;;;;2239673;56;21358;-72
2020/12/08 11:58:06;;;;;;;10.02;5.97;;;10.20;67.60;;;;;;2441066;55;21038;-72
2020/12/08 12:00:33;;;;;;;11.25;5.87;;;10.10;67.10;;;;;;2454452;55;21028;-72
2020/12/08 12:03:00;;;;;;;8.30;5.20;;;10.00;66.80;;;;;;2450278;55;21019;-72
2020/12/08 12:05:27;;;;;;;9.95;6.18;;;9.90;68.00;;;;;;2230875;56;20997;-72
2020/12/08 12:07:54;;;;;;;9.43;5.90;;;9.90;68.00;;;;;;2458716;55;20937;-72
2020/12/08 12:10:21;;;;;;;11.07;6.65;;;9.80;68.70;;;;;;2238616;56;21839;-72
2020/12/08 12:12:47;;;;;;;10.45;6.22;;;9.70;68.80;;;;;;2446896;55;20989;-72
2020/12/08 12:15:15;;;;;;;12.48;6.60;;;9.70;69.00;;;;;;2239022;56;20960;-72
2020/12/08 12:17:43;;;;;;;12.93;8.48;;;9.70;69.00;;;;;;2225045;55;21016;-72
2020/12/08 12:20:12;;;;;;;23.85;18.27;;;9.70;68.90;;;;;;2232013;56;21125;-72
2020/12/08 12:22:39;;;;;;;16.27;11.43;;;9.70;69.20;;;;;;2453229;55;21410;-72
2020/12/08 12:25:05;;;;;;;14.52;9.75;;;9.70;69.20;;;;;;2236812;56;21027;-72
2020/12/08 12:27:31;;;;;;;14.55;8.45;;;9.60;69.00;;;;;;2231620;56;20977;-72
2020/12/08 12:29:58;;;;;;;12.50;7.85;;;9.60;69.00;;;;;;2443775;56;21421;-72
2020/12/08 12:32:29;;;;;;;13.77;8.23;;;9.60;69.10;;;;;;2460871;55;21008;-72
2020/12/08 12:34:55;;;;;;;13.85;8.15;;;9.60;69.70;;;;;;2209518;57;21043;-72
2020/12/08 12:37:23;;;;;;;12.50;6.90;;;9.60;70.60;;;;;;2228391;55;21003;-72
2020/12/08 12:39:50;;;;;;;12.90;7.47;;;9.70;70.90;;;;;;2224635;55;21042;-72
2020/12/08 12:42:18;;;;;;;13.20;7.47;;;9.70;70.70;;;;;;2441388;55;20952;-72
2020/12/08 12:44:45;;;;;;;13.48;7.72;;;9.80;70.50;;;;;;2231937;55;21244;-73
2020/12/08 12:47:12;;;;;;;14.73;7.68;;;9.80;69.80;;;;;;2451474;55;21041;-72
2020/12/08 12:49:41;;;;;;;14.48;7.85;;;9.80;69.00;;;;;;2238227;56;20981;-72
2020/12/08 12:52:08;;;;;;;11.77;6.87;;;9.70;68.20;;;;;;2462062;55;21028;-72
2020/12/08 12:54:34;;;;;;;10.98;6.97;;;9.70;67.60;;;;;;2461320;55;21037;-72